sensor_id;sensor_type;location;lat;lon;timestamp;pressure;altitude;pressure_sealevel;temperature;humidity
49423;BME280;36998;51.974;20.150;2022-08-24T00:00:11;100193.34;;;21.33;78.96
49423;BME280;36998;51.974;20.150;2022-08-24T00:02:37;100188.25;;;21.48;77.91
49423;BME280;36998;51.974;20.150;2022-08-24T00:05:02;100188.47;;;21.35;78.41
49423;BME280;36998;51.974;20.150;2022-08-24T00:07:29;100190.25;;;21.29;79.05
49423;BME280;36998;51.974;20.150;2022-08-24T00:09:55;100194.88;;;21.28;78.88
49423;BME280;36998;51.974;20.150;2022-08-24T00:12:21;100191.28;;;21.28;78.94
49423;BME280;36998;51.974;20.150;2022-08-24T00:14:46;100191.91;;;21.30;78.82
49423;BME280;36998;51.974;20.150;2022-08-24T00:17:12;100196.31;;;21.31;78.80
49423;BME280;36998;51.974;20.150;2022-08-24T00:19:38;100191.91;;;21.30;78.84
49423;BME280;36998;51.974;20.150;2022-08-24T00:22:04;100199.31;;;21.30;78.85
49423;BME280;36998;51.974;20.150;2022-08-24T00:24:29;100200.63;;;21.27;78.89
49423;BME280;36998;51.974;20.150;2022-08-24T00:26:55;100207.41;;;21.24;79.07
49423;BME280;36998;51.974;20.150;2022-08-24T00:29:21;100207.88;;;21.21;78.75
49423;BME280;36998;51.974;20.150;2022-08-24T00:31:48;100205.59;;;21.18;79.14
49423;BME280;36998;51.974;20.150;2022-08-24T00:34:14;100207.97;;;21.15;78.90
49423;BME280;36998;51.974;20.150;2022-08-24T00:36:43;100202.38;;;21.10;79.24
49423;BME280;36998;51.974;20.150;2022-08-24T00:39:08;100222.06;;;21.07;79.50
49423;BME280;36998;51.974;20.150;2022-08-24T00:41:40;100215.13;;;21.04;79.47
49423;BME280;36998;51.974;20.150;2022-08-24T00:44:06;100210.94;;;21.01;78.98
49423;BME280;36998;51.974;20.150;2022-08-24T00:46:40;100202.94;;;21.00;79.48
49423;BME280;36998;51.974;20.150;2022-08-24T00:49:28;100193.63;;;21.01;79.51
49423;BME280;36998;51.974;20.150;2022-08-24T00:52:10;100199.13;;;21.01;79.28
49423;BME280;36998;51.974;20.150;2022-08-24T00:54:43;100191.97;;;21.00;79.38
49423;BME280;36998;51.974;20.150;2022-08-24T00:57:11;100196.63;;;20.99;79.48
49423;BME280;36998;51.974;20.150;2022-08-24T00:59:44;100187.31;;;21.00;79.74
49423;BME280;36998;51.974;20.150;2022-08-24T01:02:14;100195.91;;;21.04;79.45
49423;BME280;36998;51.974;20.150;2022-08-24T01:04:54;100202.84;;;21.07;79.56
49423;BME280;36998;51.974;20.150;2022-08-24T01:07:22;100202.13;;;21.11;79.38
49423;BME280;36998;51.974;20.150;2022-08-24T01:09:50;100187.94;;;21.14;79.66
49423;BME280;36998;51.974;20.150;2022-08-24T01:12:16;100183.63;;;21.18;79.22
49423;BME280;36998;51.974;20.150;2022-08-24T01:14:42;100182.59;;;21.19;79.16
49423;BME280;36998;51.974;20.150;2022-08-24T01:17:08;100187.13;;;21.25;79.14
49423;BME280;36998;51.974;20.150;2022-08-24T01:19:54;100185.81;;;21.28;78.90
49423;BME280;36998;51.974;20.150;2022-08-24T01:22:53;100184.03;;;21.34;78.94
49423;BME280;36998;51.974;20.150;2022-08-24T01:25:22;100176.03;;;21.32;78.81
49423;BME280;36998;51.974;20.150;2022-08-24T01:27:49;100187.59;;;21.34;78.62
49423;BME280;36998;51.974;20.150;2022-08-24T01:30:17;100183.19;;;21.33;78.64
49423;BME280;36998;51.974;20.150;2022-08-24T01:32:54;100183.19;;;21.33;78.73
49423;BME280;36998;51.974;20.150;2022-08-24T01:35:20;100178.31;;;21.35;78.73
49423;BME280;36998;51.974;20.150;2022-08-24T01:37:46;100183.59;;;21.37;78.67
49423;BME280;36998;51.974;20.150;2022-08-24T01:40:11;100185.88;;;21.40;78.48
49423;BME280;36998;51.974;20.150;2022-08-24T01:42:38;100195.56;;;21.42;78.45
49423;BME280;36998;51.974;20.150;2022-08-24T01:45:04;100188.38;;;21.41;78.48
49423;BME280;36998;51.974;20.150;2022-08-24T01:47:29;100193.63;;;21.43;78.23
49423;BME280;36998;51.974;20.150;2022-08-24T01:49:56;100187.88;;;21.44;78.40
49423;BME280;36998;51.974;20.150;2022-08-24T01:52:24;100186.59;;;21.47;78.44
49423;BME280;36998;51.974;20.150;2022-08-24T01:54:52;100186.72;;;21.52;78.17
49423;BME280;36998;51.974;20.150;2022-08-24T01:57:17;100193.88;;;21.53;77.98
49423;BME280;36998;51.974;20.150;2022-08-24T01:59:44;100189.22;;;21.54;78.06
49423;BME280;36998;51.974;20.150;2022-08-24T02:02:18;100201.88;;;21.55;78.04
49423;BME280;36998;51.974;20.150;2022-08-24T02:04:46;100197.81;;;21.57;77.90
49423;BME280;36998;51.974;20.150;2022-08-24T02:07:12;100207.16;;;21.56;78.08
49423;BME280;36998;51.974;20.150;2022-08-24T02:09:39;100213.25;;;21.58;78.06
49423;BME280;36998;51.974;20.150;2022-08-24T02:12:05;100208.34;;;21.60;78.00
49423;BME280;36998;51.974;20.150;2022-08-24T02:14:33;100207.88;;;21.63;77.97
49423;BME280;36998;51.974;20.150;2022-08-24T02:16:59;100207.03;;;21.63;77.86
49423;BME280;36998;51.974;20.150;2022-08-24T02:19:25;100199.00;;;21.61;77.85
49423;BME280;36998;51.974;20.150;2022-08-24T02:21:52;100205.38;;;21.62;77.81
49423;BME280;36998;51.974;20.150;2022-08-24T02:24:18;100211.44;;;21.64;77.85
49423;BME280;36998;51.974;20.150;2022-08-24T02:26:43;100223.28;;;21.64;77.84
49423;BME280;36998;51.974;20.150;2022-08-24T02:29:09;100223.06;;;21.66;77.85
49423;BME280;36998;51.974;20.150;2022-08-24T02:31:35;100225.31;;;21.69;77.62
49423;BME280;36998;51.974;20.150;2022-08-24T02:34:01;100232.75;;;21.68;77.66
49423;BME280;36998;51.974;20.150;2022-08-24T02:36:27;100226.50;;;21.61;77.98
49423;BME280;36998;51.974;20.150;2022-08-24T02:38:58;100227.47;;;21.55;77.90
49423;BME280;36998;51.974;20.150;2022-08-24T02:41:23;100225.78;;;21.54;77.95
49423;BME280;36998;51.974;20.150;2022-08-24T02:43:51;100224.94;;;21.54;78.04
49423;BME280;36998;51.974;20.150;2022-08-24T02:46:19;100228.53;;;21.54;78.00
49423;BME280;36998;51.974;20.150;2022-08-24T02:48:45;100232.97;;;21.55;78.04
49423;BME280;36998;51.974;20.150;2022-08-24T02:51:24;100232.00;;;21.49;78.33
49423;BME280;36998;51.974;20.150;2022-08-24T02:53:51;100233.91;;;21.49;78.23
49423;BME280;36998;51.974;20.150;2022-08-24T02:56:17;100228.88;;;21.46;78.28
49423;BME280;36998;51.974;20.150;2022-08-24T02:58:46;100228.75;;;21.41;78.27
49423;BME280;36998;51.974;20.150;2022-08-24T03:01:12;100229.81;;;21.40;78.35
49423;BME280;36998;51.974;20.150;2022-08-24T03:03:38;100224.78;;;21.37;78.43
49423;BME280;36998;51.974;20.150;2022-08-24T03:06:04;100234.56;;;21.33;78.35
49423;BME280;36998;51.974;20.150;2022-08-24T03:08:30;100228.44;;;21.31;78.64
49423;BME280;36998;51.974;20.150;2022-08-24T03:10:56;100226.16;;;21.27;78.75
49423;BME280;36998;51.974;20.150;2022-08-24T03:13:21;100235.97;;;21.23;78.60
49423;BME280;36998;51.974;20.150;2022-08-24T03:15:47;100238.34;;;21.20;78.77
49423;BME280;36998;51.974;20.150;2022-08-24T03:18:12;100236.91;;;21.17;78.68
49423;BME280;36998;51.974;20.150;2022-08-24T03:20:38;100243.69;;;21.15;78.87
49423;BME280;36998;51.974;20.150;2022-08-24T03:23:04;100237.59;;;21.13;78.88
49423;BME280;36998;51.974;20.150;2022-08-24T03:25:30;100239.03;;;21.15;78.91
49423;BME280;36998;51.974;20.150;2022-08-24T03:27:56;100236.91;;;21.17;78.78
49423;BME280;36998;51.974;20.150;2022-08-24T03:30:23;100237.72;;;21.18;78.78
49423;BME280;36998;51.974;20.150;2022-08-24T03:32:49;100240.94;;;21.15;78.91
49423;BME280;36998;51.974;20.150;2022-08-24T03:35:16;100240.34;;;21.13;78.75
49423;BME280;36998;51.974;20.150;2022-08-24T03:37:42;100242.50;;;21.11;78.81
49423;BME280;36998;51.974;20.150;2022-08-24T03:40:11;100248.81;;;21.11;78.93
49423;BME280;36998;51.974;20.150;2022-08-24T03:42:37;100248.81;;;21.11;78.82
49423;BME280;36998;51.974;20.150;2022-08-24T03:45:03;100250.97;;;21.09;78.79
49423;BME280;36998;51.974;20.150;2022-08-24T03:47:28;100252.63;;;21.10;78.88
49423;BME280;36998;51.974;20.150;2022-08-24T03:49:54;100254.31;;;21.11;78.79
49423;BME280;36998;51.974;20.150;2022-08-24T03:52:21;100254.31;;;21.11;78.83
49423;BME280;36998;51.974;20.150;2022-08-24T03:54:47;100256.47;;;21.09;78.95
49423;BME280;36998;51.974;20.150;2022-08-24T03:57:12;100257.28;;;21.10;79.12
49423;BME280;36998;51.974;20.150;2022-08-24T03:59:39;100258.97;;;21.11;78.84
49423;BME280;36998;51.974;20.150;2022-08-24T04:02:04;100261.09;;;21.09;79.09
49423;BME280;36998;51.974;20.150;2022-08-24T04:04:30;100271.88;;;21.10;79.11
49423;BME280;36998;51.974;20.150;2022-08-24T04:06:56;100274.00;;;21.08;78.99
49423;BME280;36998;51.974;20.150;2022-08-24T04:09:23;100275.19;;;21.12;78.91
49423;BME280;36998;51.974;20.150;2022-08-24T04:11:49;100283.59;;;21.17;78.80
49423;BME280;36998;51.974;20.150;2022-08-24T04:14:16;100285.41;;;21.23;78.60
49423;BME280;36998;51.974;20.150;2022-08-24T04:16:46;100267.38;;;21.27;78.53
49423;BME280;36998;51.974;20.150;2022-08-24T04:19:18;100258.91;;;21.29;78.42
49423;BME280;36998;51.974;20.150;2022-08-24T04:21:44;100263.09;;;21.32;78.53
49423;BME280;36998;51.974;20.150;2022-08-24T04:24:10;100268.75;;;21.37;78.36
49423;BME280;36998;51.974;20.150;2022-08-24T04:26:38;100266.63;;;21.39;78.49
49423;BME280;36998;51.974;20.150;2022-08-24T04:29:09;100270.78;;;21.41;78.66
49423;BME280;36998;51.974;20.150;2022-08-24T04:31:40;100270.31;;;21.44;78.59
49423;BME280;36998;51.974;20.150;2022-08-24T04:34:07;100274.16;;;21.43;78.64
49423;BME280;36998;51.974;20.150;2022-08-24T04:36:33;100274.75;;;21.45;78.65
49423;BME280;36998;51.974;20.150;2022-08-24T04:38:59;100272.59;;;21.47;78.54
49423;BME280;36998;51.974;20.150;2022-08-24T04:41:56;100268.06;;;21.53;78.22
49423;BME280;36998;51.974;20.150;2022-08-24T04:44:23;100277.53;;;21.57;78.36
49423;BME280;36998;51.974;20.150;2022-08-24T04:46:48;100288.41;;;21.64;78.32
49423;BME280;36998;51.974;20.150;2022-08-24T04:49:14;100277.78;;;21.67;78.03
49423;BME280;36998;51.974;20.150;2022-08-24T04:51:39;100281.13;;;21.69;77.96
49423;BME280;36998;51.974;20.150;2022-08-24T04:54:06;100282.31;;;21.73;78.20
49423;BME280;36998;51.974;20.150;2022-08-24T04:56:33;100283.31;;;21.79;77.82
49423;BME280;36998;51.974;20.150;2022-08-24T04:59:00;100287.03;;;21.85;77.66
49423;BME280;36998;51.974;20.150;2022-08-24T05:01:28;100290.34;;;21.87;77.54
49423;BME280;36998;51.974;20.150;2022-08-24T05:03:55;100292.06;;;21.88;77.46
49423;BME280;36998;51.974;20.150;2022-08-24T05:06:23;100292.63;;;21.90;77.43
49423;BME280;36998;51.974;20.150;2022-08-24T05:08:50;100299.81;;;21.91;77.15
49423;BME280;36998;51.974;20.150;2022-08-24T05:11:19;100296.22;;;21.90;77.23
49423;BME280;36998;51.974;20.150;2022-08-24T05:13:46;100297.06;;;21.91;77.19
49423;BME280;36998;51.974;20.150;2022-08-24T05:16:14;100292.41;;;21.91;77.21
49423;BME280;36998;51.974;20.150;2022-08-24T05:18:42;100294.69;;;21.94;76.87
49423;BME280;36998;51.974;20.150;2022-08-24T05:21:10;100293.97;;;21.99;77.00
49423;BME280;36998;51.974;20.150;2022-08-24T05:23:37;100292.19;;;22.05;77.22
49423;BME280;36998;51.974;20.150;2022-08-24T05:26:08;100294.56;;;22.13;76.96
49423;BME280;36998;51.974;20.150;2022-08-24T05:28:36;100291.59;;;22.26;77.00
49423;BME280;36998;51.974;20.150;2022-08-24T05:31:11;100296.63;;;22.41;76.72
49423;BME280;36998;51.974;20.150;2022-08-24T05:33:37;100304.84;;;22.53;75.98
49423;BME280;36998;51.974;20.150;2022-08-24T05:36:05;100299.94;;;22.66;75.71
49423;BME280;36998;51.974;20.150;2022-08-24T05:38:31;100295.69;;;22.76;75.53
49423;BME280;36998;51.974;20.150;2022-08-24T05:41:02;100288.66;;;22.80;75.41
49423;BME280;36998;51.974;20.150;2022-08-24T05:43:28;100287.41;;;22.87;74.95
49423;BME280;36998;51.974;20.150;2022-08-24T05:45:54;100286.81;;;22.97;74.62
49423;BME280;36998;51.974;20.150;2022-08-24T05:48:20;100279.25;;;23.04;74.61
49423;BME280;36998;51.974;20.150;2022-08-24T05:51:05;100284.75;;;23.04;74.26
49423;BME280;36998;51.974;20.150;2022-08-24T05:53:33;100288.09;;;23.06;74.20
49423;BME280;36998;51.974;20.150;2022-08-24T05:56:06;100274.06;;;23.08;74.15
49423;BME280;36998;51.974;20.150;2022-08-24T05:58:33;100278.09;;;23.17;73.95
49423;BME280;36998;51.974;20.150;2022-08-24T06:01:15;100265.34;;;23.28;73.80
49423;BME280;36998;51.974;20.150;2022-08-24T06:03:42;100273.13;;;23.31;73.80
49423;BME280;36998;51.974;20.150;2022-08-24T06:06:13;100283.16;;;23.37;73.38
49423;BME280;36998;51.974;20.150;2022-08-24T06:08:41;100272.56;;;23.46;73.22
49423;BME280;36998;51.974;20.150;2022-08-24T06:11:11;100275.84;;;23.59;73.14
49423;BME280;36998;51.974;20.150;2022-08-24T06:13:37;100278.47;;;23.83;72.91
49423;BME280;36998;51.974;20.150;2022-08-24T06:16:04;100281.97;;;24.12;72.12
49423;BME280;36998;51.974;20.150;2022-08-24T06:18:30;100276.22;;;24.14;71.54
49423;BME280;36998;51.974;20.150;2022-08-24T06:20:55;100282.06;;;24.17;71.26
49423;BME280;36998;51.974;20.150;2022-08-24T06:23:21;100280.13;;;24.18;71.44
49423;BME280;36998;51.974;20.150;2022-08-24T06:25:57;100281.69;;;24.30;71.01
49423;BME280;36998;51.974;20.150;2022-08-24T06:28:43;100275.72;;;24.39;70.42
49423;BME280;36998;51.974;20.150;2022-08-24T06:31:09;100272.63;;;24.35;70.65
49423;BME280;36998;51.974;20.150;2022-08-24T06:33:35;100280.16;;;24.40;70.36
49423;BME280;36998;51.974;20.150;2022-08-24T06:36:01;100281.75;;;24.52;70.15
49423;BME280;36998;51.974;20.150;2022-08-24T06:38:27;100280.53;;;24.65;69.43
49423;BME280;36998;51.974;20.150;2022-08-24T06:40:54;100288.63;;;24.72;69.42
49423;BME280;36998;51.974;20.150;2022-08-24T06:43:21;100289.97;;;24.91;68.82
49423;BME280;36998;51.974;20.150;2022-08-24T06:45:51;100294.16;;;25.16;68.50
49423;BME280;36998;51.974;20.150;2022-08-24T06:48:21;100278.28;;;25.33;68.03
49423;BME280;36998;51.974;20.150;2022-08-24T06:50:47;100275.47;;;25.55;67.41
49423;BME280;36998;51.974;20.150;2022-08-24T06:53:15;100287.84;;;25.80;66.50
49423;BME280;36998;51.974;20.150;2022-08-24T06:55:56;100281.94;;;25.98;66.56
49423;BME280;36998;51.974;20.150;2022-08-24T06:58:23;100295.09;;;26.18;65.61
49423;BME280;36998;51.974;20.150;2022-08-24T07:00:49;100302.91;;;26.26;65.16
49423;BME280;36998;51.974;20.150;2022-08-24T07:03:16;100299.91;;;26.33;64.61
49423;BME280;36998;51.974;20.150;2022-08-24T07:05:55;100297.00;;;26.50;64.35
49423;BME280;36998;51.974;20.150;2022-08-24T07:08:53;100302.66;;;26.80;63.42
49423;BME280;36998;51.974;20.150;2022-08-24T07:11:20;100302.19;;;26.99;62.40
49423;BME280;36998;51.974;20.150;2022-08-24T07:13:47;100298.41;;;27.15;62.16
49423;BME280;36998;51.974;20.150;2022-08-24T07:16:14;100307.88;;;27.50;61.04
49423;BME280;36998;51.974;20.150;2022-08-24T07:18:42;100318.22;;;27.95;60.14
49423;BME280;36998;51.974;20.150;2022-08-24T07:21:08;100317.66;;;28.09;58.85
49423;BME280;36998;51.974;20.150;2022-08-24T07:23:38;100322.09;;;28.05;59.37
49423;BME280;36998;51.974;20.150;2022-08-24T07:26:06;100325.72;;;27.95;59.38
49423;BME280;36998;51.974;20.150;2022-08-24T07:28:37;100323.22;;;27.88;59.06
49423;BME280;36998;51.974;20.150;2022-08-24T07:31:04;100331.81;;;27.82;58.95
49423;BME280;36998;51.974;20.150;2022-08-24T07:33:35;100331.28;;;27.80;59.15
49423;BME280;36998;51.974;20.150;2022-08-24T07:36:01;100338.19;;;27.92;58.32
49423;BME280;36998;51.974;20.150;2022-08-24T07:38:27;100340.41;;;28.06;57.88
49423;BME280;36998;51.974;20.150;2022-08-24T07:40:53;100336.00;;;28.20;57.87
49423;BME280;36998;51.974;20.150;2022-08-24T07:43:18;100335.44;;;28.18;57.79
49423;BME280;36998;51.974;20.150;2022-08-24T07:45:47;100341.28;;;28.06;57.55
49423;BME280;36998;51.974;20.150;2022-08-24T07:48:12;100351.25;;;28.02;58.00
49423;BME280;36998;51.974;20.150;2022-08-24T07:50:43;100350.16;;;27.98;57.88
49423;BME280;36998;51.974;20.150;2022-08-24T07:53:09;100352.91;;;27.77;57.96
49423;BME280;36998;51.974;20.150;2022-08-24T07:55:35;100356.47;;;27.63;58.23
49423;BME280;36998;51.974;20.150;2022-08-24T07:58:00;100359.53;;;27.61;58.41
49423;BME280;36998;51.974;20.150;2022-08-24T08:00:26;100357.31;;;27.68;58.17
49423;BME280;36998;51.974;20.150;2022-08-24T08:02:57;100355.69;;;27.83;57.80
49423;BME280;36998;51.974;20.150;2022-08-24T08:05:23;100352.94;;;27.98;57.53
49423;BME280;36998;51.974;20.150;2022-08-24T08:07:51;100350.72;;;28.00;57.39
49423;BME280;36998;51.974;20.150;2022-08-24T08:10:17;100350.72;;;28.10;57.02
49423;BME280;36998;51.974;20.150;2022-08-24T08:12:42;100349.31;;;28.18;57.11
49423;BME280;36998;51.974;20.150;2022-08-24T08:15:09;100349.84;;;28.25;56.50
49423;BME280;36998;51.974;20.150;2022-08-24T08:17:38;100354.56;;;28.24;56.24
49423;BME280;36998;51.974;20.150;2022-08-24T08:20:06;100361.53;;;28.27;55.56
49423;BME280;36998;51.974;20.150;2022-08-24T08:22:32;100367.94;;;28.43;55.63
49423;BME280;36998;51.974;20.150;2022-08-24T08:25:36;100367.88;;;28.63;55.51
49423;BME280;36998;51.974;20.150;2022-08-24T08:28:05;100373.72;;;28.72;55.30
49423;BME280;36998;51.974;20.150;2022-08-24T08:30:31;100370.06;;;28.82;54.50
49423;BME280;36998;51.974;20.150;2022-08-24T08:32:57;100370.88;;;28.92;54.55
49423;BME280;36998;51.974;20.150;2022-08-24T08:35:22;100366.13;;;28.93;54.52
49423;BME280;36998;51.974;20.150;2022-08-24T08:37:48;100373.63;;;29.08;54.23
49423;BME280;36998;51.974;20.150;2022-08-24T08:40:27;100376.63;;;29.27;53.79
49423;BME280;36998;51.974;20.150;2022-08-24T08:42:58;100372.84;;;29.52;53.89
49423;BME280;36998;51.974;20.150;2022-08-24T08:45:51;100358.91;;;29.57;53.11
49423;BME280;36998;51.974;20.150;2022-08-24T08:48:57;100364.69;;;29.71;52.81
49423;BME280;36998;51.974;20.150;2022-08-24T08:59:46;100379.97;;;30.13;51.51
49423;BME280;36998;51.974;20.150;2022-08-24T09:02:36;100376.94;;;30.09;51.20
49423;BME280;36998;51.974;20.150;2022-08-24T09:05:38;100379.19;;;30.41;50.72
49423;BME280;36998;51.974;20.150;2022-08-24T09:08:25;100375.97;;;30.58;50.81
49423;BME280;36998;51.974;20.150;2022-08-24T09:16:34;100366.78;;;31.06;49.41
49423;BME280;36998;51.974;20.150;2022-08-24T09:19:27;100362.53;;;30.89;49.00
49423;BME280;36998;51.974;20.150;2022-08-24T09:22:09;100366.25;;;30.79;49.22
49423;BME280;36998;51.974;20.150;2022-08-24T09:30:15;100367.56;;;31.11;49.04
49423;BME280;36998;51.974;20.150;2022-08-24T09:38:56;100359.84;;;32.22;46.38
49423;BME280;36998;51.974;20.150;2022-08-24T09:41:54;100358.66;;;32.09;46.71
49423;BME280;36998;51.974;20.150;2022-08-24T09:44:48;100352.53;;;32.07;46.75
49423;BME280;36998;51.974;20.150;2022-08-24T09:53:52;100356.09;;;31.93;47.05
49423;BME280;36998;51.974;20.150;2022-08-24T09:59:48;100352.03;;;31.86;46.49
49423;BME280;36998;51.974;20.150;2022-08-24T10:02:48;100353.00;;;31.76;46.71
49423;BME280;36998;51.974;20.150;2022-08-24T10:11:29;100348.75;;;31.98;46.96
49423;BME280;36998;51.974;20.150;2022-08-24T10:14:29;100349.72;;;32.39;46.80
49423;BME280;36998;51.974;20.150;2022-08-24T10:17:11;100350.63;;;32.54;46.19
49423;BME280;36998;51.974;20.150;2022-08-24T10:20:08;100354.56;;;32.94;45.60
49423;BME280;36998;51.974;20.150;2022-08-24T10:22:59;100353.84;;;33.02;45.35
49423;BME280;36998;51.974;20.150;2022-08-24T10:28:21;100346.50;;;33.06;44.72
49423;BME280;36998;51.974;20.150;2022-08-24T10:31:04;100354.47;;;33.13;44.93
49423;BME280;36998;51.974;20.150;2022-08-24T10:33:43;100350.75;;;33.04;44.79
49423;BME280;36998;51.974;20.150;2022-08-24T10:36:32;100353.34;;;33.00;45.21
49423;BME280;36998;51.974;20.150;2022-08-24T10:39:09;100348.25;;;32.88;45.41
49423;BME280;36998;51.974;20.150;2022-08-24T10:42:06;100351.97;;;32.70;45.25
49423;BME280;36998;51.974;20.150;2022-08-24T10:45:27;100346.25;;;32.61;46.03
49423;BME280;36998;51.974;20.150;2022-08-24T10:51:02;100346.59;;;32.74;45.47
49423;BME280;36998;51.974;20.150;2022-08-24T10:53:33;100345.88;;;33.09;45.20
49423;BME280;36998;51.974;20.150;2022-08-24T10:58:39;100349.78;;;33.36;44.78
49423;BME280;36998;51.974;20.150;2022-08-24T11:01:23;100347.88;;;33.59;44.57
49423;BME280;36998;51.974;20.150;2022-08-24T11:03:52;100362.03;;;33.76;43.86
49423;BME280;36998;51.974;20.150;2022-08-24T11:06:18;100349.84;;;33.81;43.82
49423;BME280;36998;51.974;20.150;2022-08-24T11:08:56;100349.84;;;33.81;43.61
49423;BME280;36998;51.974;20.150;2022-08-24T11:14:08;100345.38;;;34.16;43.11
49423;BME280;36998;51.974;20.150;2022-08-24T11:16:44;100350.66;;;34.40;42.56
49423;BME280;36998;51.974;20.150;2022-08-24T11:21:53;100348.53;;;34.86;41.66
49423;BME280;36998;51.974;20.150;2022-08-24T11:27:01;100349.47;;;34.72;41.90
49423;BME280;36998;51.974;20.150;2022-08-24T11:32:30;100346.59;;;34.86;41.66
49423;BME280;36998;51.974;20.150;2022-08-24T11:35:05;100353.50;;;34.89;41.76
49423;BME280;36998;51.974;20.150;2022-08-24T11:37:34;100343.41;;;35.28;41.27
49423;BME280;36998;51.974;20.150;2022-08-24T11:40:00;100345.63;;;36.73;38.66
49423;BME280;36998;51.974;20.150;2022-08-24T11:43:04;100347.88;;;39.42;34.85
49423;BME280;36998;51.974;20.150;2022-08-24T11:45:42;100333.34;;;41.55;30.67
49423;BME280;36998;51.974;20.150;2022-08-24T11:51:28;100347.66;;;43.65;28.01
49423;BME280;36998;51.974;20.150;2022-08-24T11:54:17;100345.44;;;44.15;27.03
49423;BME280;36998;51.974;20.150;2022-08-24T11:57:00;100347.44;;;44.52;25.89
49423;BME280;36998;51.974;20.150;2022-08-24T11:59:38;100333.22;;;45.04;25.73
49423;BME280;36998;51.974;20.150;2022-08-24T12:02:15;100338.63;;;44.27;26.08
49423;BME280;36998;51.974;20.150;2022-08-24T12:05:03;100337.94;;;42.21;28.96
49423;BME280;36998;51.974;20.150;2022-08-24T12:10:50;100341.41;;;38.68;32.89
49423;BME280;36998;51.974;20.150;2022-08-24T12:13:56;100336.00;;;37.34;34.74
49423;BME280;36998;51.974;20.150;2022-08-24T12:19:08;100337.13;;;36.26;36.97
49423;BME280;36998;51.974;20.150;2022-08-24T12:21:38;100346.22;;;38.10;34.23
49423;BME280;36998;51.974;20.150;2022-08-24T12:24:17;100332.19;;;37.38;35.27
49423;BME280;36998;51.974;20.150;2022-08-24T12:26:48;100327.50;;;37.42;35.67
49423;BME280;36998;51.974;20.150;2022-08-24T12:29:20;100335.53;;;37.32;35.58
49423;BME280;36998;51.974;20.150;2022-08-24T12:31:58;100331.00;;;39.58;31.90
49423;BME280;36998;51.974;20.150;2022-08-24T12:39:43;100322.81;;;41.75;29.00
49423;BME280;36998;51.974;20.150;2022-08-24T12:42:24;100319.38;;;45.06;25.08
49423;BME280;36998;51.974;20.150;2022-08-24T12:45:00;100325.63;;;47.49;22.62
49423;BME280;36998;51.974;20.150;2022-08-24T12:50:13;100312.44;;;49.64;19.84
49423;BME280;36998;51.974;20.150;2022-08-24T12:53:01;100323.53;;;51.81;18.60
49423;BME280;36998;51.974;20.150;2022-08-24T12:58:53;100324.19;;;53.90;16.42
49423;BME280;36998;51.974;20.150;2022-08-24T13:01:22;100315.25;;;53.85;15.71
49423;BME280;36998;51.974;20.150;2022-08-24T13:04:02;100317.03;;;54.08;15.28
49423;BME280;36998;51.974;20.150;2022-08-24T13:06:59;100323.16;;;53.97;15.41
49423;BME280;36998;51.974;20.150;2022-08-24T13:09:36;100322.69;;;53.98;15.40
49423;BME280;36998;51.974;20.150;2022-08-24T13:17:49;100326.53;;;54.81;14.24
49423;BME280;36998;51.974;20.150;2022-08-24T13:20:22;100325.25;;;54.95;14.57
49423;BME280;36998;51.974;20.150;2022-08-24T13:33:32;100305.16;;;53.51;14.84
49423;BME280;36998;51.974;20.150;2022-08-24T13:36:06;100312.25;;;52.88;15.20
49423;BME280;36998;51.974;20.150;2022-08-24T13:46:43;100312.72;;;52.21;15.95
49423;BME280;36998;51.974;20.150;2022-08-24T13:49:18;100310.81;;;51.98;15.86
49423;BME280;36998;51.974;20.150;2022-08-24T13:52:05;100310.16;;;51.31;16.50
49423;BME280;36998;51.974;20.150;2022-08-24T13:54:43;100304.56;;;50.29;17.10
49423;BME280;36998;51.974;20.150;2022-08-24T14:02:41;100289.25;;;49.82;18.22
49423;BME280;36998;51.974;20.150;2022-08-24T14:05:29;100291.16;;;50.19;17.48
49423;BME280;36998;51.974;20.150;2022-08-24T14:08:24;100276.72;;;50.50;17.46
49423;BME280;36998;51.974;20.150;2022-08-24T14:11:09;100281.97;;;50.78;17.33
49423;BME280;36998;51.974;20.150;2022-08-24T14:13:57;100272.22;;;51.56;17.09
49423;BME280;36998;51.974;20.150;2022-08-24T14:16:34;100274.19;;;51.79;16.65
49423;BME280;36998;51.974;20.150;2022-08-24T14:19:33;100279.47;;;51.64;16.48
49423;BME280;36998;51.974;20.150;2022-08-24T14:25:23;100283.13;;;51.04;16.84
49423;BME280;36998;51.974;20.150;2022-08-24T14:27:36;100277.28;;;50.65;17.53
49423;BME280;36998;51.974;20.150;2022-08-24T14:43:30;100287.41;;;47.92;19.95
49423;BME280;36998;51.974;20.150;2022-08-24T14:46:10;100276.97;;;47.49;20.33
49423;BME280;36998;51.974;20.150;2022-08-24T14:48:52;100279.50;;;47.29;20.45
49423;BME280;36998;51.974;20.150;2022-08-24T14:51:51;100273.03;;;47.04;20.23
49423;BME280;36998;51.974;20.150;2022-08-24T14:57:36;100270.47;;;47.38;20.34
49423;BME280;36998;51.974;20.150;2022-08-24T15:03:23;100274.00;;;47.74;20.38
49423;BME280;36998;51.974;20.150;2022-08-24T15:07:59;100273.66;;;47.58;19.92
49423;BME280;36998;51.974;20.150;2022-08-24T15:10:33;100274.22;;;47.13;20.79
49423;BME280;36998;51.974;20.150;2022-08-24T15:13:03;100279.16;;;46.31;21.32
49423;BME280;36998;51.974;20.150;2022-08-24T15:15:54;100280.75;;;46.03;21.97
49423;BME280;36998;51.974;20.150;2022-08-24T15:18:46;100278.72;;;45.13;22.48
49423;BME280;36998;51.974;20.150;2022-08-24T15:26:48;100292.75;;;40.33;27.52